sensor_id;sensor_type;location;lat;lon;timestamp;P1;durP1;ratioP1;P2;durP2;ratioP2
12687;SDS011;6408;59.388;17.798;2022-08-06T00:01:08;2.50;;;1.00;;
12687;SDS011;6408;59.388;17.798;2022-08-06T00:03:36;1.33;;;1.00;;
12687;SDS011;6408;59.388;17.798;2022-08-06T00:06:03;2.90;;;1.05;;
12687;SDS011;6408;59.388;17.798;2022-08-06T00:08:31;1.70;;;0.88;;
12687;SDS011;6408;59.388;17.798;2022-08-06T00:10:58;0.85;;;0.80;;
12687;SDS011;6408;59.388;17.798;2022-08-06T00:13:24;1.58;;;1.02;;
12687;SDS011;6408;59.388;17.798;2022-08-06T00:15:51;1.92;;;0.95;;
12687;SDS011;6408;59.388;17.798;2022-08-06T00:18:19;1.67;;;0.98;;
12687;SDS011;6408;59.388;17.798;2022-08-06T00:20:47;1.92;;;1.10;;
12687;SDS011;6408;59.388;17.798;2022-08-06T00:23:14;3.83;;;1.15;;
12687;SDS011;6408;59.388;17.798;2022-08-06T00:25:40;2.15;;;1.02;;
12687;SDS011;6408;59.388;17.798;2022-08-06T00:28:07;0.85;;;0.85;;
12687;SDS011;6408;59.388;17.798;2022-08-06T00:30:34;2.75;;;0.75;;
12687;SDS011;6408;59.388;17.798;2022-08-06T00:33:01;1.98;;;1.40;;
12687;SDS011;6408;59.388;17.798;2022-08-06T00:35:27;2.75;;;1.00;;
12687;SDS011;6408;59.388;17.798;2022-08-06T00:37:56;1.13;;;1.02;;
12687;SDS011;6408;59.388;17.798;2022-08-06T00:40:22;2.90;;;1.00;;
12687;SDS011;6408;59.388;17.798;2022-08-06T00:42:49;2.67;;;1.02;;
12687;SDS011;6408;59.388;17.798;2022-08-06T00:45:16;2.80;;;1.08;;
12687;SDS011;6408;59.388;17.798;2022-08-06T00:47:43;4.97;;;1.45;;
12687;SDS011;6408;59.388;17.798;2022-08-06T00:50:10;3.67;;;1.13;;
12687;SDS011;6408;59.388;17.798;2022-08-06T00:52:36;2.10;;;0.90;;
12687;SDS011;6408;59.388;17.798;2022-08-06T00:55:05;3.95;;;1.00;;
12687;SDS011;6408;59.388;17.798;2022-08-06T00:57:32;3.78;;;0.93;;
12687;SDS011;6408;59.388;17.798;2022-08-06T00:59:59;3.17;;;1.30;;
12687;SDS011;6408;59.388;17.798;2022-08-06T01:02:25;3.38;;;1.15;;
12687;SDS011;6408;59.388;17.798;2022-08-06T01:04:52;2.72;;;0.98;;
12687;SDS011;6408;59.388;17.798;2022-08-06T01:07:19;2.25;;;1.05;;
12687;SDS011;6408;59.388;17.798;2022-08-06T01:09:46;3.47;;;1.05;;
12687;SDS011;6408;59.388;17.798;2022-08-06T01:12:15;3.25;;;0.85;;
12687;SDS011;6408;59.388;17.798;2022-08-06T01:14:42;3.53;;;0.95;;
12687;SDS011;6408;59.388;17.798;2022-08-06T01:17:14;2.33;;;1.00;;
12687;SDS011;6408;59.388;17.798;2022-08-06T01:19:48;3.35;;;1.20;;
12687;SDS011;6408;59.388;17.798;2022-08-06T01:22:27;1.63;;;1.10;;
12687;SDS011;6408;59.388;17.798;2022-08-06T01:25:31;1.55;;;1.10;;
12687;SDS011;6408;59.388;17.798;2022-08-06T01:28:34;1.23;;;1.10;;
12687;SDS011;6408;59.388;17.798;2022-08-06T01:31:04;2.90;;;1.10;;
12687;SDS011;6408;59.388;17.798;2022-08-06T01:33:41;2.23;;;1.20;;
12687;SDS011;6408;59.388;17.798;2022-08-06T01:36:14;1.43;;;1.17;;
12687;SDS011;6408;59.388;17.798;2022-08-06T01:38:45;2.13;;;1.20;;
12687;SDS011;6408;59.388;17.798;2022-08-06T01:41:16;2.30;;;1.20;;
12687;SDS011;6408;59.388;17.798;2022-08-06T01:44:02;3.60;;;1.57;;
12687;SDS011;6408;59.388;17.798;2022-08-06T01:46:30;2.17;;;1.27;;
12687;SDS011;6408;59.388;17.798;2022-08-06T01:48:59;4.03;;;1.13;;
12687;SDS011;6408;59.388;17.798;2022-08-06T01:51:28;4.97;;;1.10;;
12687;SDS011;6408;59.388;17.798;2022-08-06T01:53:56;1.83;;;1.10;;
12687;SDS011;6408;59.388;17.798;2022-08-06T01:56:24;4.13;;;1.33;;
12687;SDS011;6408;59.388;17.798;2022-08-06T01:58:52;2.80;;;1.50;;
12687;SDS011;6408;59.388;17.798;2022-08-06T02:01:23;4.00;;;1.20;;
12687;SDS011;6408;59.388;17.798;2022-08-06T02:03:51;2.53;;;1.10;;
12687;SDS011;6408;59.388;17.798;2022-08-06T02:06:21;2.53;;;1.20;;
12687;SDS011;6408;59.388;17.798;2022-08-06T02:08:50;1.20;;;1.10;;
12687;SDS011;6408;59.388;17.798;2022-08-06T02:11:18;3.93;;;1.30;;
12687;SDS011;6408;59.388;17.798;2022-08-06T02:13:45;2.00;;;1.17;;
12687;SDS011;6408;59.388;17.798;2022-08-06T02:16:16;4.50;;;1.30;;
12687;SDS011;6408;59.388;17.798;2022-08-06T02:18:46;2.90;;;1.20;;
12687;SDS011;6408;59.388;17.798;2022-08-06T02:21:17;4.50;;;1.33;;
12687;SDS011;6408;59.388;17.798;2022-08-06T02:23:47;1.63;;;1.10;;
12687;SDS011;6408;59.388;17.798;2022-08-06T02:26:15;1.97;;;1.20;;
12687;SDS011;6408;59.388;17.798;2022-08-06T02:28:43;3.93;;;1.40;;
12687;SDS011;6408;59.388;17.798;2022-08-06T02:31:12;5.07;;;1.37;;
12687;SDS011;6408;59.388;17.798;2022-08-06T02:33:39;4.83;;;1.93;;
12687;SDS011;6408;59.388;17.798;2022-08-06T02:36:09;4.07;;;1.47;;
12687;SDS011;6408;59.388;17.798;2022-08-06T02:38:44;3.23;;;1.30;;
12687;SDS011;6408;59.388;17.798;2022-08-06T02:41:16;5.63;;;1.50;;
12687;SDS011;6408;59.388;17.798;2022-08-06T02:43:47;2.80;;;1.30;;
12687;SDS011;6408;59.388;17.798;2022-08-06T02:46:19;1.93;;;1.17;;
12687;SDS011;6408;59.388;17.798;2022-08-06T02:48:52;5.97;;;1.47;;
12687;SDS011;6408;59.388;17.798;2022-08-06T02:51:27;2.73;;;1.27;;
12687;SDS011;6408;59.388;17.798;2022-08-06T02:53:59;2.43;;;1.30;;
12687;SDS011;6408;59.388;17.798;2022-08-06T02:56:29;4.17;;;1.77;;
12687;SDS011;6408;59.388;17.798;2022-08-06T02:58:58;3.50;;;1.37;;
12687;SDS011;6408;59.388;17.798;2022-08-06T03:01:28;2.60;;;1.40;;
12687;SDS011;6408;59.388;17.798;2022-08-06T03:03:58;2.17;;;1.10;;
12687;SDS011;6408;59.388;17.798;2022-08-06T03:06:30;3.73;;;1.80;;
12687;SDS011;6408;59.388;17.798;2022-08-06T03:09:00;2.07;;;1.20;;
12687;SDS011;6408;59.388;17.798;2022-08-06T03:11:30;3.73;;;1.30;;
12687;SDS011;6408;59.388;17.798;2022-08-06T03:13:59;2.60;;;1.40;;
12687;SDS011;6408;59.388;17.798;2022-08-06T03:16:27;3.00;;;1.50;;
12687;SDS011;6408;59.388;17.798;2022-08-06T03:18:57;5.53;;;1.50;;
12687;SDS011;6408;59.388;17.798;2022-08-06T03:21:24;4.77;;;1.37;;
12687;SDS011;6408;59.388;17.798;2022-08-06T03:23:55;2.70;;;1.40;;
12687;SDS011;6408;59.388;17.798;2022-08-06T03:26:24;4.13;;;1.30;;
12687;SDS011;6408;59.388;17.798;2022-08-06T03:28:51;2.47;;;1.30;;
12687;SDS011;6408;59.388;17.798;2022-08-06T03:31:21;4.53;;;1.70;;
12687;SDS011;6408;59.388;17.798;2022-08-06T03:33:49;2.50;;;1.30;;
12687;SDS011;6408;59.388;17.798;2022-08-06T03:36:18;4.90;;;1.73;;
12687;SDS011;6408;59.388;17.798;2022-08-06T03:38:49;5.33;;;1.70;;
12687;SDS011;6408;59.388;17.798;2022-08-06T03:41:19;3.30;;;1.53;;
12687;SDS011;6408;59.388;17.798;2022-08-06T03:43:49;5.17;;;1.60;;
12687;SDS011;6408;59.388;17.798;2022-08-06T03:46:18;3.57;;;1.37;;
12687;SDS011;6408;59.388;17.798;2022-08-06T03:48:49;5.13;;;1.60;;
12687;SDS011;6408;59.388;17.798;2022-08-06T03:51:20;5.80;;;1.73;;
12687;SDS011;6408;59.388;17.798;2022-08-06T03:53:50;4.73;;;1.47;;
12687;SDS011;6408;59.388;17.798;2022-08-06T03:56:20;5.00;;;1.77;;
12687;SDS011;6408;59.388;17.798;2022-08-06T03:58:50;4.87;;;1.83;;
12687;SDS011;6408;59.388;17.798;2022-08-06T04:01:20;3.53;;;1.63;;
12687;SDS011;6408;59.388;17.798;2022-08-06T04:03:49;5.27;;;1.60;;
12687;SDS011;6408;59.388;17.798;2022-08-06T04:06:17;6.87;;;1.80;;
12687;SDS011;6408;59.388;17.798;2022-08-06T04:08:47;3.33;;;1.70;;
12687;SDS011;6408;59.388;17.798;2022-08-06T04:11:16;4.67;;;1.37;;
12687;SDS011;6408;59.388;17.798;2022-08-06T04:13:44;4.53;;;1.57;;
12687;SDS011;6408;59.388;17.798;2022-08-06T04:16:12;3.40;;;1.40;;
12687;SDS011;6408;59.388;17.798;2022-08-06T04:18:40;4.68;;;1.60;;
12687;SDS011;6408;59.388;17.798;2022-08-06T04:21:09;3.03;;;1.52;;
12687;SDS011;6408;59.388;17.798;2022-08-06T04:23:39;5.72;;;1.40;;
12687;SDS011;6408;59.388;17.798;2022-08-06T04:26:06;3.85;;;1.85;;
12687;SDS011;6408;59.388;17.798;2022-08-06T04:28:36;3.35;;;1.33;;
12687;SDS011;6408;59.388;17.798;2022-08-06T04:31:07;3.80;;;1.50;;
12687;SDS011;6408;59.388;17.798;2022-08-06T04:33:35;5.13;;;1.65;;
12687;SDS011;6408;59.388;17.798;2022-08-06T04:36:03;2.95;;;1.42;;
12687;SDS011;6408;59.388;17.798;2022-08-06T04:38:32;3.42;;;1.30;;
12687;SDS011;6408;59.388;17.798;2022-08-06T04:40:59;5.97;;;1.60;;
12687;SDS011;6408;59.388;17.798;2022-08-06T04:43:28;5.93;;;1.40;;
12687;SDS011;6408;59.388;17.798;2022-08-06T04:45:57;6.20;;;1.77;;
12687;SDS011;6408;59.388;17.798;2022-08-06T04:48:25;3.25;;;1.50;;
12687;SDS011;6408;59.388;17.798;2022-08-06T04:50:54;2.03;;;1.35;;
12687;SDS011;6408;59.388;17.798;2022-08-06T04:53:21;3.70;;;1.33;;
12687;SDS011;6408;59.388;17.798;2022-08-06T04:55:48;5.38;;;1.55;;
12687;SDS011;6408;59.388;17.798;2022-08-06T04:58:15;4.32;;;1.50;;
12687;SDS011;6408;59.388;17.798;2022-08-06T05:00:44;5.15;;;1.75;;
12687;SDS011;6408;59.388;17.798;2022-08-06T05:03:13;3.72;;;1.60;;
12687;SDS011;6408;59.388;17.798;2022-08-06T05:05:42;5.55;;;1.50;;
12687;SDS011;6408;59.388;17.798;2022-08-06T05:08:12;2.85;;;1.45;;
12687;SDS011;6408;59.388;17.798;2022-08-06T05:10:42;5.97;;;2.15;;
12687;SDS011;6408;59.388;17.798;2022-08-06T05:13:12;3.05;;;1.27;;
12687;SDS011;6408;59.388;17.798;2022-08-06T05:15:41;4.22;;;1.80;;
12687;SDS011;6408;59.388;17.798;2022-08-06T05:18:10;3.65;;;1.42;;
12687;SDS011;6408;59.388;17.798;2022-08-06T05:20:42;3.90;;;1.70;;
12687;SDS011;6408;59.388;17.798;2022-08-06T05:23:16;5.50;;;1.80;;
12687;SDS011;6408;59.388;17.798;2022-08-06T05:25:46;6.13;;;1.73;;
12687;SDS011;6408;59.388;17.798;2022-08-06T05:28:14;7.35;;;2.17;;
12687;SDS011;6408;59.388;17.798;2022-08-06T05:30:41;5.30;;;1.60;;
12687;SDS011;6408;59.388;17.798;2022-08-06T05:33:09;4.60;;;1.33;;
12687;SDS011;6408;59.388;17.798;2022-08-06T05:35:37;6.70;;;1.52;;
12687;SDS011;6408;59.388;17.798;2022-08-06T05:38:04;4.97;;;1.63;;
12687;SDS011;6408;59.388;17.798;2022-08-06T05:40:31;5.38;;;1.65;;
12687;SDS011;6408;59.388;17.798;2022-08-06T05:43:00;3.17;;;1.60;;
12687;SDS011;6408;59.388;17.798;2022-08-06T05:45:26;6.07;;;1.60;;
12687;SDS011;6408;59.388;17.798;2022-08-06T05:47:53;4.72;;;1.90;;
12687;SDS011;6408;59.388;17.798;2022-08-06T05:50:26;5.97;;;1.75;;
12687;SDS011;6408;59.388;17.798;2022-08-06T05:53:00;7.40;;;1.70;;
12687;SDS011;6408;59.388;17.798;2022-08-06T05:55:31;4.40;;;1.40;;
12687;SDS011;6408;59.388;17.798;2022-08-06T05:58:04;6.50;;;1.75;;
12687;SDS011;6408;59.388;17.798;2022-08-06T06:00:34;3.55;;;1.63;;
12687;SDS011;6408;59.388;17.798;2022-08-06T06:03:02;5.15;;;1.75;;
12687;SDS011;6408;59.388;17.798;2022-08-06T06:05:32;5.20;;;1.65;;
12687;SDS011;6408;59.388;17.798;2022-08-06T06:08:02;6.18;;;1.85;;
12687;SDS011;6408;59.388;17.798;2022-08-06T06:10:31;7.18;;;1.67;;
12687;SDS011;6408;59.388;17.798;2022-08-06T06:12:59;4.38;;;1.45;;
12687;SDS011;6408;59.388;17.798;2022-08-06T06:15:27;5.18;;;1.83;;
12687;SDS011;6408;59.388;17.798;2022-08-06T06:17:58;3.90;;;1.95;;
12687;SDS011;6408;59.388;17.798;2022-08-06T06:20:34;3.40;;;1.30;;
12687;SDS011;6408;59.388;17.798;2022-08-06T06:23:11;5.18;;;1.98;;
12687;SDS011;6408;59.388;17.798;2022-08-06T06:25:42;4.55;;;1.85;;
12687;SDS011;6408;59.388;17.798;2022-08-06T06:28:13;4.47;;;1.67;;
12687;SDS011;6408;59.388;17.798;2022-08-06T06:30:46;5.60;;;1.60;;
12687;SDS011;6408;59.388;17.798;2022-08-06T06:33:19;6.25;;;1.75;;
12687;SDS011;6408;59.388;17.798;2022-08-06T06:35:51;4.68;;;1.63;;
12687;SDS011;6408;59.388;17.798;2022-08-06T06:38:34;3.17;;;1.40;;
12687;SDS011;6408;59.388;17.798;2022-08-06T06:41:08;4.95;;;1.85;;
12687;SDS011;6408;59.388;17.798;2022-08-06T06:43:39;6.15;;;1.75;;
12687;SDS011;6408;59.388;17.798;2022-08-06T06:46:13;5.47;;;1.30;;
12687;SDS011;6408;59.388;17.798;2022-08-06T06:48:47;5.20;;;1.98;;
12687;SDS011;6408;59.388;17.798;2022-08-06T06:51:19;2.95;;;1.55;;
12687;SDS011;6408;59.388;17.798;2022-08-06T06:53:51;2.20;;;1.65;;
12687;SDS011;6408;59.388;17.798;2022-08-06T06:56:20;5.15;;;1.60;;
12687;SDS011;6408;59.388;17.798;2022-08-06T06:58:50;4.22;;;1.35;;
12687;SDS011;6408;59.388;17.798;2022-08-06T07:01:21;6.03;;;1.88;;
12687;SDS011;6408;59.388;17.798;2022-08-06T07:03:50;6.03;;;1.67;;
12687;SDS011;6408;59.388;17.798;2022-08-06T07:06:19;5.55;;;1.90;;
12687;SDS011;6408;59.388;17.798;2022-08-06T07:08:47;5.03;;;1.67;;
12687;SDS011;6408;59.388;17.798;2022-08-06T07:11:19;5.28;;;1.52;;
12687;SDS011;6408;59.388;17.798;2022-08-06T07:13:48;3.47;;;1.45;;
12687;SDS011;6408;59.388;17.798;2022-08-06T07:16:19;4.95;;;1.65;;
12687;SDS011;6408;59.388;17.798;2022-08-06T07:18:47;5.93;;;1.80;;
12687;SDS011;6408;59.388;17.798;2022-08-06T07:21:17;4.95;;;1.55;;
12687;SDS011;6408;59.388;17.798;2022-08-06T07:23:46;3.67;;;1.48;;
12687;SDS011;6408;59.388;17.798;2022-08-06T07:26:18;5.32;;;1.50;;
12687;SDS011;6408;59.388;17.798;2022-08-06T07:28:45;4.88;;;1.27;;
12687;SDS011;6408;59.388;17.798;2022-08-06T07:31:13;4.32;;;1.48;;
12687;SDS011;6408;59.388;17.798;2022-08-06T07:33:42;3.65;;;1.35;;
12687;SDS011;6408;59.388;17.798;2022-08-06T07:36:12;3.10;;;1.38;;
12687;SDS011;6408;59.388;17.798;2022-08-06T07:38:41;3.00;;;1.20;;
12687;SDS011;6408;59.388;17.798;2022-08-06T07:41:11;2.55;;;1.13;;
12687;SDS011;6408;59.388;17.798;2022-08-06T07:43:43;3.53;;;1.63;;
12687;SDS011;6408;59.388;17.798;2022-08-06T07:46:19;3.95;;;1.48;;
12687;SDS011;6408;59.388;17.798;2022-08-06T07:48:50;4.50;;;1.42;;
12687;SDS011;6408;59.388;17.798;2022-08-06T07:51:20;2.45;;;0.90;;
12687;SDS011;6408;59.388;17.798;2022-08-06T07:53:50;3.97;;;1.42;;
12687;SDS011;6408;59.388;17.798;2022-08-06T07:56:18;4.63;;;1.30;;
12687;SDS011;6408;59.388;17.798;2022-08-06T07:58:47;2.45;;;1.17;;
12687;SDS011;6408;59.388;17.798;2022-08-06T08:01:14;4.10;;;1.30;;
12687;SDS011;6408;59.388;17.798;2022-08-06T08:03:42;2.63;;;1.05;;
12687;SDS011;6408;59.388;17.798;2022-08-06T08:06:38;3.80;;;1.20;;
12687;SDS011;6408;59.388;17.798;2022-08-06T08:09:07;3.80;;;1.10;;
12687;SDS011;6408;59.388;17.798;2022-08-06T08:11:37;2.92;;;1.23;;
12687;SDS011;6408;59.388;17.798;2022-08-06T08:14:08;3.42;;;1.20;;
12687;SDS011;6408;59.388;17.798;2022-08-06T08:16:36;1.30;;;1.00;;
12687;SDS011;6408;59.388;17.798;2022-08-06T08:19:18;6.18;;;1.30;;
12687;SDS011;6408;59.388;17.798;2022-08-06T08:21:47;2.22;;;1.00;;
12687;SDS011;6408;59.388;17.798;2022-08-06T08:24:13;3.15;;;1.02;;
12687;SDS011;6408;59.388;17.798;2022-08-06T08:26:41;2.58;;;1.05;;
12687;SDS011;6408;59.388;17.798;2022-08-06T08:29:09;2.38;;;0.85;;
12687;SDS011;6408;59.388;17.798;2022-08-06T08:31:35;2.33;;;0.90;;
12687;SDS011;6408;59.388;17.798;2022-08-06T08:34:02;2.60;;;1.00;;
12687;SDS011;6408;59.388;17.798;2022-08-06T08:36:30;2.33;;;0.80;;
12687;SDS011;6408;59.388;17.798;2022-08-06T08:38:57;2.45;;;0.80;;
12687;SDS011;6408;59.388;17.798;2022-08-06T08:41:24;0.93;;;0.80;;
12687;SDS011;6408;59.388;17.798;2022-08-06T08:43:55;1.38;;;0.63;;
12687;SDS011;6408;59.388;17.798;2022-08-06T08:46:27;1.45;;;0.80;;
12687;SDS011;6408;59.388;17.798;2022-08-06T08:48:55;0.85;;;0.70;;
12687;SDS011;6408;59.388;17.798;2022-08-06T08:51:23;1.80;;;0.73;;
12687;SDS011;6408;59.388;17.798;2022-08-06T08:53:53;1.73;;;1.00;;
12687;SDS011;6408;59.388;17.798;2022-08-06T08:56:23;1.00;;;0.90;;
12687;SDS011;6408;59.388;17.798;2022-08-06T08:58:51;2.08;;;0.73;;
12687;SDS011;6408;59.388;17.798;2022-08-06T09:01:18;1.27;;;0.73;;
12687;SDS011;6408;59.388;17.798;2022-08-06T09:03:46;1.77;;;0.63;;
12687;SDS011;6408;59.388;17.798;2022-08-06T09:06:14;1.33;;;0.65;;
12687;SDS011;6408;59.388;17.798;2022-08-06T09:08:40;1.75;;;0.57;;
12687;SDS011;6408;59.388;17.798;2022-08-06T09:11:09;0.90;;;0.65;;
12687;SDS011;6408;59.388;17.798;2022-08-06T09:13:36;0.75;;;0.52;;
12687;SDS011;6408;59.388;17.798;2022-08-06T09:16:03;0.82;;;0.50;;
12687;SDS011;6408;59.388;17.798;2022-08-06T09:18:30;1.40;;;0.50;;
12687;SDS011;6408;59.388;17.798;2022-08-06T09:20:59;0.50;;;0.50;;
12687;SDS011;6408;59.388;17.798;2022-08-06T09:23:26;1.23;;;0.50;;
12687;SDS011;6408;59.388;17.798;2022-08-06T09:25:54;0.70;;;0.70;;
12687;SDS011;6408;59.388;17.798;2022-08-06T09:28:28;0.50;;;0.50;;
12687;SDS011;6408;59.388;17.798;2022-08-06T09:30:57;3.08;;;0.60;;
12687;SDS011;6408;59.388;17.798;2022-08-06T09:33:25;1.38;;;0.50;;
12687;SDS011;6408;59.388;17.798;2022-08-06T09:36:00;0.73;;;0.40;;
12687;SDS011;6408;59.388;17.798;2022-08-06T09:38:29;1.17;;;0.52;;
12687;SDS011;6408;59.388;17.798;2022-08-06T09:41:02;1.70;;;0.50;;
12687;SDS011;6408;59.388;17.798;2022-08-06T09:43:30;0.63;;;0.43;;
12687;SDS011;6408;59.388;17.798;2022-08-06T09:45:57;0.40;;;0.40;;
12687;SDS011;6408;59.388;17.798;2022-08-06T09:48:24;1.40;;;0.52;;
12687;SDS011;6408;59.388;17.798;2022-08-06T09:50:50;0.30;;;0.30;;
12687;SDS011;6408;59.388;17.798;2022-08-06T09:53:19;0.55;;;0.50;;
12687;SDS011;6408;59.388;17.798;2022-08-06T09:55:46;0.45;;;0.38;;
12687;SDS011;6408;59.388;17.798;2022-08-06T09:58:14;2.50;;;0.55;;
12687;SDS011;6408;59.388;17.798;2022-08-06T10:00:53;0.20;;;0.20;;
12687;SDS011;6408;59.388;17.798;2022-08-06T10:03:20;1.20;;;0.40;;
12687;SDS011;6408;59.388;17.798;2022-08-06T10:05:47;0.55;;;0.55;;
12687;SDS011;6408;59.388;17.798;2022-08-06T10:08:30;1.90;;;0.55;;
12687;SDS011;6408;59.388;17.798;2022-08-06T10:10:57;1.00;;;0.70;;
12687;SDS011;6408;59.388;17.798;2022-08-06T10:13:27;1.35;;;0.40;;
12687;SDS011;6408;59.388;17.798;2022-08-06T10:15:56;1.70;;;0.43;;
12687;SDS011;6408;59.388;17.798;2022-08-06T10:18:34;0.50;;;0.50;;
12687;SDS011;6408;59.388;17.798;2022-08-06T10:21:04;0.40;;;0.40;;
12687;SDS011;6408;59.388;17.798;2022-08-06T10:23:33;0.40;;;0.40;;
12687;SDS011;6408;59.388;17.798;2022-08-06T10:26:03;0.95;;;0.50;;
12687;SDS011;6408;59.388;17.798;2022-08-06T10:28:32;0.43;;;0.43;;
12687;SDS011;6408;59.388;17.798;2022-08-06T10:31:01;1.83;;;0.50;;
12687;SDS011;6408;59.388;17.798;2022-08-06T10:33:31;2.65;;;0.68;;
12687;SDS011;6408;59.388;17.798;2022-08-06T10:36:06;0.52;;;0.50;;
12687;SDS011;6408;59.388;17.798;2022-08-06T10:38:37;1.48;;;0.60;;
12687;SDS011;6408;59.388;17.798;2022-08-06T10:41:07;0.73;;;0.63;;
12687;SDS011;6408;59.388;17.798;2022-08-06T10:43:35;0.80;;;0.50;;
12687;SDS011;6408;59.388;17.798;2022-08-06T10:46:07;0.60;;;0.60;;
12687;SDS011;6408;59.388;17.798;2022-08-06T10:48:38;0.52;;;0.52;;
12687;SDS011;6408;59.388;17.798;2022-08-06T10:51:06;1.85;;;0.60;;
12687;SDS011;6408;59.388;17.798;2022-08-06T10:53:37;3.17;;;0.65;;
12687;SDS011;6408;59.388;17.798;2022-08-06T10:56:07;0.95;;;0.60;;
12687;SDS011;6408;59.388;17.798;2022-08-06T10:58:35;2.08;;;0.75;;
12687;SDS011;6408;59.388;17.798;2022-08-06T11:01:04;0.70;;;0.70;;
12687;SDS011;6408;59.388;17.798;2022-08-06T11:03:44;1.30;;;0.75;;
12687;SDS011;6408;59.388;17.798;2022-08-06T11:06:30;1.08;;;0.73;;
12687;SDS011;6408;59.388;17.798;2022-08-06T11:09:14;0.60;;;0.60;;
12687;SDS011;6408;59.388;17.798;2022-08-06T11:11:58;1.23;;;0.68;;
12687;SDS011;6408;59.388;17.798;2022-08-06T11:14:37;0.93;;;0.60;;
12687;SDS011;6408;59.388;17.798;2022-08-06T11:17:05;0.60;;;0.60;;
12687;SDS011;6408;59.388;17.798;2022-08-06T11:19:36;0.65;;;0.55;;
12687;SDS011;6408;59.388;17.798;2022-08-06T11:22:05;1.38;;;0.50;;
12687;SDS011;6408;59.388;17.798;2022-08-06T11:24:33;0.60;;;0.60;;
12687;SDS011;6408;59.388;17.798;2022-08-06T11:30:13;0.70;;;0.60;;
12687;SDS011;6408;59.388;17.798;2022-08-06T11:32:43;1.05;;;0.63;;
12687;SDS011;6408;59.388;17.798;2022-08-06T11:38:09;1.42;;;0.60;;
12687;SDS011;6408;59.388;17.798;2022-08-06T11:40:55;0.60;;;0.60;;
12687;SDS011;6408;59.388;17.798;2022-08-06T11:43:41;0.57;;;0.57;;
12687;SDS011;6408;59.388;17.798;2022-08-06T11:46:16;0.65;;;0.65;;
12687;SDS011;6408;59.388;17.798;2022-08-06T11:51:59;0.65;;;0.50;;
12687;SDS011;6408;59.388;17.798;2022-08-06T11:54:27;0.75;;;0.50;;
12687;SDS011;6408;59.388;17.798;2022-08-06T12:00:04;1.55;;;0.57;;
12687;SDS011;6408;59.388;17.798;2022-08-06T12:02:55;1.48;;;0.45;;
12687;SDS011;6408;59.388;17.798;2022-08-06T12:08:14;0.43;;;0.43;;
12687;SDS011;6408;59.388;17.798;2022-08-06T12:13:54;0.60;;;0.60;;
12687;SDS011;6408;59.388;17.798;2022-08-06T12:16:25;0.65;;;0.65;;
12687;SDS011;6408;59.388;17.798;2022-08-06T12:19:10;0.57;;;0.57;;
12687;SDS011;6408;59.388;17.798;2022-08-06T12:21:39;2.38;;;0.60;;
12687;SDS011;6408;59.388;17.798;2022-08-06T12:24:07;0.70;;;0.63;;
12687;SDS011;6408;59.388;17.798;2022-08-06T12:26:34;0.93;;;0.60;;
12687;SDS011;6408;59.388;17.798;2022-08-06T12:29:05;0.68;;;0.57;;
12687;SDS011;6408;59.388;17.798;2022-08-06T12:31:35;0.50;;;0.50;;
12687;SDS011;6408;59.388;17.798;2022-08-06T12:34:03;0.95;;;0.60;;
12687;SDS011;6408;59.388;17.798;2022-08-06T12:36:32;1.55;;;0.40;;
12687;SDS011;6408;59.388;17.798;2022-08-06T12:39:01;0.95;;;0.55;;
12687;SDS011;6408;59.388;17.798;2022-08-06T12:41:40;0.43;;;0.40;;
12687;SDS011;6408;59.388;17.798;2022-08-06T12:44:09;0.80;;;0.47;;
12687;SDS011;6408;59.388;17.798;2022-08-06T12:46:37;0.40;;;0.40;;
12687;SDS011;6408;59.388;17.798;2022-08-06T12:49:05;1.45;;;0.63;;
12687;SDS011;6408;59.388;17.798;2022-08-06T12:51:33;1.42;;;0.70;;
12687;SDS011;6408;59.388;17.798;2022-08-06T12:54:00;0.70;;;0.60;;
12687;SDS011;6408;59.388;17.798;2022-08-06T12:56:30;0.77;;;0.63;;
12687;SDS011;6408;59.388;17.798;2022-08-06T12:59:00;0.50;;;0.50;;
12687;SDS011;6408;59.388;17.798;2022-08-06T13:01:30;0.52;;;0.50;;
12687;SDS011;6408;59.388;17.798;2022-08-06T13:04:00;0.40;;;0.40;;
12687;SDS011;6408;59.388;17.798;2022-08-06T13:06:28;1.98;;;0.55;;
12687;SDS011;6408;59.388;17.798;2022-08-06T13:08:59;1.10;;;0.57;;
12687;SDS011;6408;59.388;17.798;2022-08-06T13:11:30;0.50;;;0.50;;
12687;SDS011;6408;59.388;17.798;2022-08-06T13:13:58;0.40;;;0.40;;
12687;SDS011;6408;59.388;17.798;2022-08-06T13:19:19;0.28;;;0.28;;
12687;SDS011;6408;59.388;17.798;2022-08-06T13:21:56;0.43;;;0.43;;
12687;SDS011;6408;59.388;17.798;2022-08-06T13:24:25;1.55;;;0.50;;
12687;SDS011;6408;59.388;17.798;2022-08-06T13:26:53;0.50;;;0.50;;
12687;SDS011;6408;59.388;17.798;2022-08-06T13:29:22;1.38;;;0.60;;
12687;SDS011;6408;59.388;17.798;2022-08-06T13:32:02;0.47;;;0.47;;
12687;SDS011;6408;59.388;17.798;2022-08-06T13:34:44;0.30;;;0.30;;
12687;SDS011;6408;59.388;17.798;2022-08-06T13:37:12;0.95;;;0.60;;
12687;SDS011;6408;59.388;17.798;2022-08-06T13:39:48;0.43;;;0.43;;
12687;SDS011;6408;59.388;17.798;2022-08-06T13:42:16;0.40;;;0.38;;
12687;SDS011;6408;59.388;17.798;2022-08-06T13:44:43;1.08;;;0.50;;
12687;SDS011;6408;59.388;17.798;2022-08-06T13:47:13;0.40;;;0.40;;
12687;SDS011;6408;59.388;17.798;2022-08-06T13:49:42;0.60;;;0.60;;
12687;SDS011;6408;59.388;17.798;2022-08-06T13:52:10;0.40;;;0.40;;
12687;SDS011;6408;59.388;17.798;2022-08-06T13:54:37;2.60;;;0.50;;
12687;SDS011;6408;59.388;17.798;2022-08-06T13:57:04;0.82;;;0.60;;
12687;SDS011;6408;59.388;17.798;2022-08-06T13:59:31;0.50;;;0.50;;
12687;SDS011;6408;59.388;17.798;2022-08-06T14:02:00;0.43;;;0.43;;
12687;SDS011;6408;59.388;17.798;2022-08-06T14:04:29;0.75;;;0.55;;
12687;SDS011;6408;59.388;17.798;2022-08-06T14:06:57;0.65;;;0.47;;
12687;SDS011;6408;59.388;17.798;2022-08-06T14:09:24;0.80;;;0.70;;
12687;SDS011;6408;59.388;17.798;2022-08-06T14:11:53;0.65;;;0.60;;
12687;SDS011;6408;59.388;17.798;2022-08-06T14:14:21;1.05;;;0.60;;
12687;SDS011;6408;59.388;17.798;2022-08-06T14:16:48;0.75;;;0.43;;
12687;SDS011;6408;59.388;17.798;2022-08-06T14:19:15;1.70;;;0.50;;
12687;SDS011;6408;59.388;17.798;2022-08-06T14:21:43;1.15;;;0.60;;
12687;SDS011;6408;59.388;17.798;2022-08-06T14:24:10;3.35;;;0.70;;
12687;SDS011;6408;59.388;17.798;2022-08-06T14:26:37;0.50;;;0.50;;
12687;SDS011;6408;59.388;17.798;2022-08-06T14:29:04;0.50;;;0.50;;
12687;SDS011;6408;59.388;17.798;2022-08-06T14:31:31;0.63;;;0.50;;
12687;SDS011;6408;59.388;17.798;2022-08-06T14:33:58;0.60;;;0.60;;
12687;SDS011;6408;59.388;17.798;2022-08-06T14:36:25;0.30;;;0.30;;
12687;SDS011;6408;59.388;17.798;2022-08-06T14:38:54;0.30;;;0.30;;
12687;SDS011;6408;59.388;17.798;2022-08-06T14:41:21;0.43;;;0.43;;
12687;SDS011;6408;59.388;17.798;2022-08-06T14:44:05;0.65;;;0.40;;
12687;SDS011;6408;59.388;17.798;2022-08-06T14:46:50;0.25;;;0.25;;
12687;SDS011;6408;59.388;17.798;2022-08-06T14:49:17;0.88;;;0.73;;
12687;SDS011;6408;59.388;17.798;2022-08-06T14:51:43;0.40;;;0.40;;
12687;SDS011;6408;59.388;17.798;2022-08-06T14:54:12;0.98;;;0.35;;
12687;SDS011;6408;59.388;17.798;2022-08-06T14:56:39;1.00;;;0.50;;
12687;SDS011;6408;59.388;17.798;2022-08-06T14:59:06;0.30;;;0.30;;
12687;SDS011;6408;59.388;17.798;2022-08-06T15:01:33;0.32;;;0.32;;
12687;SDS011;6408;59.388;17.798;2022-08-06T15:03:59;0.65;;;0.40;;
12687;SDS011;6408;59.388;17.798;2022-08-06T15:06:26;0.68;;;0.50;;
12687;SDS011;6408;59.388;17.798;2022-08-06T15:08:53;0.40;;;0.40;;
12687;SDS011;6408;59.388;17.798;2022-08-06T15:11:22;1.58;;;0.45;;
12687;SDS011;6408;59.388;17.798;2022-08-06T15:13:49;0.68;;;0.35;;
12687;SDS011;6408;59.388;17.798;2022-08-06T15:16:16;0.82;;;0.45;;
12687;SDS011;6408;59.388;17.798;2022-08-06T15:18:43;0.47;;;0.40;;
12687;SDS011;6408;59.388;17.798;2022-08-06T15:21:09;0.30;;;0.30;;
12687;SDS011;6408;59.388;17.798;2022-08-06T15:23:36;0.35;;;0.35;;
12687;SDS011;6408;59.388;17.798;2022-08-06T15:26:03;1.67;;;0.60;;